Time;durP1;ratioP1;P1;durP2;ratioP2;P2;SDS_P1;SDS_P2;PMS_P1;PMS_P2;Temp;Humidity;BMP_temperature;BMP_pressure;BME280_temperature;BME280_humidity;BME280_pressure;Samples;Min_cycle;Max_cycle;Signal;HPM_P1;HPM_P2
2023/10/18 00:01:29;;;;;;;17.65;12.13;;;6.50;99.90;;;;;;5050448;28;20195;-69
2023/10/18 00:03:56;;;;;;;16.92;12.32;;;6.50;99.90;;;;;;5052617;28;20014;-69
2023/10/18 00:06:23;;;;;;;19.23;13.50;;;6.60;99.90;;;;;;5050245;28;20056;-69
2023/10/18 00:08:57;;;;;;;21.10;13.07;;;6.50;99.90;;;;;;5045469;28;20025;-69
2023/10/18 00:11:24;;;;;;;19.40;11.55;;;6.60;99.90;;;;;;5047059;28;20076;-69
2023/10/18 00:13:50;;;;;;;20.50;12.60;;;6.60;99.90;;;;;;5043059;28;20024;-69
2023/10/18 00:16:16;;;;;;;20.75;13.18;;;6.50;99.90;;;;;;5041305;28;20038;-69
2023/10/18 00:18:42;;;;;;;19.25;12.90;;;6.60;99.90;;;;;;5041537;28;20477;-69
2023/10/18 00:21:08;;;;;;;17.63;12.60;;;6.60;99.90;;;;;;5048369;28;20061;-69
2023/10/18 00:23:34;;;;;;;18.50;12.80;;;6.60;99.90;;;;;;5050090;28;20108;-69
2023/10/18 00:26:08;;;;;;;17.35;12.30;;;6.60;99.90;;;;;;5050406;28;20036;-69
2023/10/18 00:28:36;;;;;;;20.65;13.18;;;6.50;99.90;;;;;;5041534;28;20041;-69
2023/10/18 00:31:12;;;;;;;21.15;14.10;;;6.50;99.90;;;;;;5049584;28;20017;-69
2023/10/18 00:33:39;;;;;;;18.42;11.52;;;6.50;99.90;;;;;;5045606;28;20040;-69
2023/10/18 00:36:08;;;;;;;20.35;12.60;;;6.50;99.90;;;;;;5051348;28;20072;-69
2023/10/18 00:38:34;;;;;;;19.08;11.95;;;6.50;99.90;;;;;;5050490;28;20485;-69
2023/10/18 00:41:00;;;;;;;20.50;12.65;;;6.50;99.90;;;;;;5039599;28;20029;-69
2023/10/18 00:43:26;;;;;;;21.42;12.05;;;6.50;99.90;;;;;;5045045;28;20039;-69
2023/10/18 00:45:53;;;;;;;23.10;13.30;;;6.40;99.90;;;;;;5051640;28;20511;-69
2023/10/18 00:48:28;;;;;;;19.08;12.50;;;6.40;99.90;;;;;;5047921;28;20029;-69
2023/10/18 00:50:56;;;;;;;19.65;12.85;;;6.40;99.90;;;;;;5049306;28;20064;-69
2023/10/18 00:53:24;;;;;;;20.40;12.45;;;6.40;99.90;;;;;;5047451;28;20120;-69
2023/10/18 00:56:00;;;;;;;18.77;11.52;;;6.40;99.90;;;;;;5043054;28;20124;-69
2023/10/18 00:58:30;;;;;;;17.73;12.27;;;6.30;99.90;;;;;;5044419;28;20160;-69
2023/10/18 01:00:56;;;;;;;19.90;12.20;;;6.30;99.90;;;;;;5046384;28;20037;-69
2023/10/18 01:03:29;;;;;;;19.05;12.15;;;6.30;99.90;;;;;;5046238;28;20546;-69
2023/10/18 01:06:00;;;;;;;17.38;11.18;;;6.30;99.90;;;;;;5051507;28;20032;-69
2023/10/18 01:08:29;;;;;;;16.40;11.07;;;6.30;99.90;;;;;;5046124;28;20051;-69
2023/10/18 01:11:04;;;;;;;18.35;12.25;;;6.30;99.90;;;;;;5043034;28;20036;-69
2023/10/18 01:13:31;;;;;;;17.70;11.35;;;6.30;99.90;;;;;;5046586;28;20025;-69
2023/10/18 01:15:57;;;;;;;18.65;11.50;;;6.30;99.90;;;;;;5048134;28;20486;-69
2023/10/18 01:18:23;;;;;;;18.17;11.70;;;6.30;99.90;;;;;;5044817;28;20021;-69
2023/10/18 01:20:48;;;;;;;16.30;11.75;;;6.30;99.90;;;;;;5022484;28;20033;-69
2023/10/18 01:23:14;;;;;;;19.92;12.55;;;6.30;99.90;;;;;;5043200;28;20127;-69
2023/10/18 01:25:40;;;;;;;16.50;10.98;;;6.30;99.90;;;;;;5049528;28;20029;-69
2023/10/18 01:28:05;;;;;;;17.42;11.05;;;6.30;99.90;;;;;;5039152;28;20021;-69
2023/10/18 01:30:33;;;;;;;17.77;10.90;;;6.30;99.90;;;;;;5036644;28;20037;-69
2023/10/18 01:32:59;;;;;;;17.10;10.77;;;6.30;99.90;;;;;;5046017;28;20029;-69
2023/10/18 01:35:24;;;;;;;25.00;12.02;;;6.20;99.90;;;;;;5037744;28;20569;-69
2023/10/18 01:37:53;;;;;;;17.50;11.13;;;6.20;99.90;;;;;;5047550;28;20060;-69
2023/10/18 01:43:00;;;;;;;16.17;9.98;;;6.20;99.90;;;;;;5048737;28;20028;-69
2023/10/18 01:45:26;;;;;;;16.13;10.60;;;6.20;99.90;;;;;;5024056;28;20522;-69
2023/10/18 01:47:52;;;;;;;17.52;11.05;;;6.20;99.90;;;;;;5045016;28;20044;-69
2023/10/18 01:50:18;;;;;;;18.58;12.05;;;6.20;99.90;;;;;;5047759;28;20056;-69
2023/10/18 01:52:45;;;;;;;17.38;10.48;;;6.20;99.90;;;;;;5048811;28;20021;-69
2023/10/18 01:55:12;;;;;;;18.17;10.70;;;6.20;99.90;;;;;;5045176;28;20099;-69
2023/10/18 01:57:39;;;;;;;15.25;10.80;;;6.20;99.90;;;;;;5041384;28;20040;-69
2023/10/18 02:00:05;;;;;;;15.15;10.50;;;6.20;99.90;;;;;;5043455;28;20028;-69
2023/10/18 02:02:33;;;;;;;16.80;10.68;;;6.20;99.90;;;;;;5045513;28;20063;-69
2023/10/18 02:04:59;;;;;;;16.50;10.65;;;6.10;99.90;;;;;;5045380;28;20067;-69
2023/10/18 02:07:25;;;;;;;18.77;10.95;;;6.10;99.90;;;;;;5039950;28;20044;-69
2023/10/18 02:09:57;;;;;;;16.55;10.82;;;6.10;99.90;;;;;;5049890;28;20140;-69
2023/10/18 02:12:23;;;;;;;16.42;9.88;;;6.10;99.90;;;;;;5042346;28;20389;-70
2023/10/18 02:14:49;;;;;;;17.27;10.23;;;6.10;99.90;;;;;;5046803;28;20028;-69
2023/10/18 02:17:18;;;;;;;16.70;10.35;;;6.10;99.90;;;;;;5039628;28;20052;-69
2023/10/18 02:19:44;;;;;;;16.48;11.00;;;6.10;99.90;;;;;;5046318;28;20067;-69
2023/10/18 02:22:12;;;;;;;17.63;10.68;;;6.10;99.90;;;;;;5044171;28;20531;-69
2023/10/18 02:24:38;;;;;;;16.80;10.75;;;6.10;99.90;;;;;;5048223;28;20064;-69
2023/10/18 02:27:09;;;;;;;19.85;10.52;;;6.10;99.90;;;;;;5046538;28;20076;-69
2023/10/18 02:29:35;;;;;;;16.23;10.30;;;6.00;99.90;;;;;;5044178;28;20056;-69
2023/10/18 02:32:11;;;;;;;14.63;9.52;;;6.00;99.90;;;;;;5044191;28;20032;-69
2023/10/18 02:34:38;;;;;;;19.60;11.10;;;6.00;99.90;;;;;;5044632;28;20485;-69
2023/10/18 02:37:06;;;;;;;17.88;9.52;;;6.00;99.90;;;;;;5052133;28;20404;-69
2023/10/18 02:39:34;;;;;;;17.05;10.70;;;6.00;99.90;;;;;;5046676;28;20025;-69
2023/10/18 02:42:00;;;;;;;17.30;10.63;;;6.00;99.90;;;;;;5037915;28;20465;-69
2023/10/18 02:44:28;;;;;;;14.23;9.85;;;6.00;99.90;;;;;;5048048;28;20021;-69
2023/10/18 02:47:02;;;;;;;16.50;10.32;;;6.00;99.90;;;;;;5040735;28;20025;-69
2023/10/18 02:49:28;;;;;;;17.30;10.55;;;6.00;99.90;;;;;;5047088;28;20031;-69
2023/10/18 02:51:54;;;;;;;20.27;10.95;;;6.00;99.90;;;;;;5046595;28;20155;-69
2023/10/18 02:54:24;;;;;;;16.83;10.55;;;6.00;99.90;;;;;;5047511;28;20029;-69
2023/10/18 02:56:55;;;;;;;16.30;10.88;;;6.00;99.90;;;;;;5040745;28;20397;-69
2023/10/18 02:59:24;;;;;;;16.33;9.85;;;6.00;99.90;;;;;;5051062;28;20112;-69
2023/10/18 03:01:54;;;;;;;12.75;8.77;;;5.90;99.90;;;;;;5052288;28;20116;-69
2023/10/18 03:04:22;;;;;;;19.42;11.60;;;5.90;99.90;;;;;;5049953;28;20615;-70
2023/10/18 03:06:50;;;;;;;15.10;10.40;;;6.00;99.90;;;;;;5048570;28;20064;-69
2023/10/18 03:09:26;;;;;;;14.02;10.60;;;6.00;99.90;;;;;;5045871;28;20025;-69
2023/10/18 03:11:55;;;;;;;17.67;11.40;;;5.90;99.90;;;;;;5051442;28;20044;-69
2023/10/18 03:17:28;;;;;;;17.33;11.18;;;6.00;99.90;;;;;;4985699;28;20411;-69
2023/10/18 03:19:55;;;;;;;16.08;10.40;;;6.00;99.90;;;;;;5031590;28;20036;-69
2023/10/18 03:22:23;;;;;;;17.58;10.73;;;5.90;99.90;;;;;;5049533;28;20016;-69
2023/10/18 03:24:55;;;;;;;20.77;11.38;;;5.90;99.90;;;;;;5048880;28;20060;-69
2023/10/18 03:27:41;;;;;;;19.48;11.52;;;5.90;99.90;;;;;;5047194;28;20404;-69
2023/10/18 03:30:18;;;;;;;15.68;10.57;;;5.90;99.90;;;;;;5041055;28;20018;-69
2023/10/18 03:32:49;;;;;;;18.15;11.65;;;5.90;99.90;;;;;;5047261;28;20025;-69
2023/10/18 03:35:21;;;;;;;17.80;10.48;;;5.90;99.90;;;;;;5049972;28;20489;-69
2023/10/18 03:37:47;;;;;;;19.88;12.05;;;5.90;99.90;;;;;;5047705;28;20025;-69
2023/10/18 03:40:27;;;;;;;19.02;11.70;;;5.90;99.90;;;;;;5049927;28;20037;-69
2023/10/18 03:42:54;;;;;;;18.58;10.85;;;5.90;99.90;;;;;;5049786;28;20481;-69
2023/10/18 03:45:21;;;;;;;20.45;12.02;;;5.90;99.90;;;;;;5051508;28;20029;-69
2023/10/18 03:48:00;;;;;;;19.40;11.25;;;5.80;99.90;;;;;;5045413;28;20492;-69
2023/10/18 03:50:35;;;;;;;21.50;11.70;;;5.80;99.90;;;;;;5046875;28;20033;-69
2023/10/18 03:53:01;;;;;;;19.88;11.68;;;5.80;99.90;;;;;;5046287;28;20033;-69
2023/10/18 03:55:36;;;;;;;19.92;12.18;;;5.80;99.90;;;;;;5050120;28;20043;-69
2023/10/18 03:58:04;;;;;;;21.33;12.00;;;5.80;99.90;;;;;;5049000;28;20102;-69
2023/10/18 04:00:37;;;;;;;20.13;12.00;;;5.80;99.90;;;;;;5042501;28;20017;-69
2023/10/18 04:03:08;;;;;;;18.00;11.40;;;5.80;99.90;;;;;;5051311;28;20370;-69
2023/10/18 04:05:41;;;;;;;21.30;12.23;;;5.80;99.90;;;;;;5045986;28;20466;-69
2023/10/18 04:08:07;;;;;;;15.70;11.10;;;5.80;99.90;;;;;;5045541;28;20033;-69
2023/10/18 04:10:36;;;;;;;20.38;12.55;;;5.80;99.90;;;;;;5049959;28;20032;-69
2023/10/18 04:13:14;;;;;;;21.55;11.85;;;5.80;99.90;;;;;;5048285;28;20380;-69
2023/10/18 04:15:49;;;;;;;21.77;12.85;;;5.80;99.90;;;;;;5048650;28;20036;-69
2023/10/18 04:18:25;;;;;;;19.05;12.20;;;5.80;99.90;;;;;;5048290;28;20051;-69
2023/10/18 04:20:52;;;;;;;26.60;12.90;;;5.80;99.90;;;;;;5041729;28;20030;-70
2023/10/18 04:23:19;;;;;;;19.77;13.13;;;5.80;99.90;;;;;;5040212;28;20432;-69
2023/10/18 04:26:10;;;;;;;17.15;11.20;;;5.80;99.90;;;;;;5050952;28;20029;-69
2023/10/18 04:28:38;;;;;;;20.92;12.32;;;5.70;99.90;;;;;;5044622;28;20025;-69
2023/10/18 04:31:08;;;;;;;18.85;11.98;;;5.80;99.90;;;;;;5037433;28;20033;-69
2023/10/18 04:33:41;;;;;;;20.67;12.30;;;5.80;99.90;;;;;;5039863;28;20086;-69
2023/10/18 04:36:11;;;;;;;;;;;5.70;99.90;;;;;;5049165;28;20412;-69
2023/10/18 04:38:42;;;;;;;17.17;11.20;;;5.70;99.90;;;;;;5046858;28;19908;-69
2023/10/18 04:41:10;;;;;;;16.27;11.77;;;5.70;99.90;;;;;;5049755;28;20020;-69
2023/10/18 04:43:36;;;;;;;18.75;11.85;;;5.70;99.90;;;;;;5052502;28;20401;-69
2023/10/18 04:46:15;;;;;;;18.45;11.55;;;5.70;99.90;;;;;;5046754;28;20029;-69
2023/10/18 04:51:26;;;;;;;22.50;12.07;;;5.70;99.90;;;;;;5048391;28;20029;-69
2023/10/18 04:54:08;;;;;;;19.33;11.52;;;5.80;99.90;;;;;;5042586;28;20123;-69
2023/10/18 04:56:46;;;;;;;17.88;10.85;;;5.70;99.90;;;;;;5044652;28;20029;-69
2023/10/18 05:04:21;;;;;;;17.30;10.93;;;5.80;99.90;;;;;;5041533;28;20044;-69
2023/10/18 05:06:54;;;;;;;20.10;11.43;;;5.80;99.90;;;;;;5035766;28;20469;-69
2023/10/18 05:09:30;;;;;;;16.92;10.68;;;5.80;99.90;;;;;;5037993;28;20025;-69
2023/10/18 05:17:32;;;;;;;17.17;10.50;;;5.80;99.90;;;;;;5047142;28;20083;-69
2023/10/18 05:20:07;;;;;;;16.98;11.02;;;5.80;99.90;;;;;;5045407;28;20060;-69
2023/10/18 05:22:35;;;;;;;18.67;10.98;;;5.70;99.90;;;;;;5051575;28;20432;-69
2023/10/18 05:27:47;;;;;;;16.67;10.05;;;5.80;99.90;;;;;;5043935;28;20070;-69
2023/10/18 05:30:15;;;;;;;14.57;8.98;;;5.80;99.90;;;;;;5038737;28;20028;-69
2023/10/18 05:33:15;;;;;;;20.15;10.18;;;5.80;99.90;;;;;;5042405;28;20025;-70
2023/10/18 05:35:34;;;;;;;18.35;10.15;;;5.80;99.90;;;;;;5043886;28;20040;-69
2023/10/18 05:38:06;;;;;;;15.48;10.05;;;5.80;99.90;;;;;;5047625;28;20075;-69
2023/10/18 05:45:56;;;;;;;15.60;8.75;;;5.90;99.90;;;;;;5047579;28;20036;-69
2023/10/18 05:48:22;;;;;;;16.08;9.70;;;5.80;99.90;;;;;;5043412;28;20055;-69
2023/10/18 05:50:49;;;;;;;18.00;10.13;;;5.80;99.90;;;;;;5050996;28;20057;-69
2023/10/18 05:53:18;;;;;;;14.85;9.43;;;5.80;99.90;;;;;;5035754;28;20041;-69
2023/10/18 05:55:52;;;;;;;17.88;9.23;;;5.80;99.90;;;;;;5038775;28;20397;-69
2023/10/18 05:58:27;;;;;;;19.13;9.35;;;5.80;99.90;;;;;;5051093;28;20029;-69
2023/10/18 06:00:57;;;;;;;17.15;8.90;;;5.80;99.90;;;;;;5037992;28;20091;-69
2023/10/18 06:03:25;;;;;;;15.55;9.15;;;5.80;99.90;;;;;;5043782;28;20033;-69
2023/10/18 06:05:55;;;;;;;13.88;9.35;;;5.80;99.90;;;;;;5045969;28;20028;-69
2023/10/18 06:08:22;;;;;;;17.83;9.57;;;5.80;99.90;;;;;;5042400;28;20116;-70
2023/10/18 06:11:00;;;;;;;17.48;9.30;;;5.70;99.90;;;;;;5043421;28;20477;-69
2023/10/18 06:13:27;;;;;;;21.48;10.57;;;5.80;99.90;;;;;;5040560;28;20477;-70
2023/10/18 06:15:53;;;;;;;14.07;9.02;;;5.80;99.90;;;;;;5044032;28;20449;-70
2023/10/18 06:18:29;;;;;;;13.98;9.20;;;5.70;99.90;;;;;;5043276;28;20026;-70
2023/10/18 06:20:59;;;;;;;13.45;9.10;;;5.80;99.90;;;;;;5038480;28;20025;-69
2023/10/18 06:25:50;;;;;;;15.27;9.80;;;5.80;99.90;;;;;;5050948;28;20057;-70
2023/10/18 06:28:24;;;;;;;16.95;9.23;;;5.80;99.90;;;;;;5040269;28;20029;-70
2023/10/18 06:30:51;;;;;;;12.85;8.70;;;5.80;99.90;;;;;;5041660;28;20374;-70
2023/10/18 06:33:19;;;;;;;16.73;8.82;;;5.90;99.90;;;;;;5042951;28;20037;-70
2023/10/18 06:35:54;;;;;;;18.42;10.20;;;5.90;99.90;;;;;;5028460;28;20083;-70
2023/10/18 06:38:22;;;;;;;14.48;10.05;;;5.90;99.90;;;;;;5041531;28;20056;-70
2023/10/18 06:40:53;;;;;;;16.42;10.25;;;5.90;99.90;;;;;;5045546;28;20037;-70
2023/10/18 06:43:21;;;;;;;12.88;8.85;;;5.90;99.90;;;;;;5050445;28;20048;-70
2023/10/18 06:45:48;;;;;;;15.45;9.52;;;6.00;99.90;;;;;;5046222;28;20021;-70
2023/10/18 06:48:15;;;;;;;14.98;10.10;;;6.00;99.90;;;;;;5048648;28;20017;-70
2023/10/18 06:50:41;;;;;;;15.43;9.70;;;6.00;99.90;;;;;;5041600;28;20029;-70
2023/10/18 06:53:07;;;;;;;14.70;9.52;;;6.00;99.90;;;;;;5050488;28;20032;-70
2023/10/18 06:58:13;;;;;;;12.52;8.93;;;6.10;99.90;;;;;;5048732;28;20043;-70
2023/10/18 07:00:43;;;;;;;16.40;9.23;;;6.10;99.90;;;;;;5042202;28;20013;-70
2023/10/18 07:03:16;;;;;;;16.13;9.25;;;6.20;99.90;;;;;;5046300;28;20393;-71
2023/10/18 07:05:54;;;;;;;15.07;9.63;;;6.20;99.90;;;;;;5042917;28;20428;-71
2023/10/18 07:08:22;;;;;;;15.02;8.75;;;6.20;99.90;;;;;;5037183;28;20033;-70
2023/10/18 07:10:57;;;;;;;15.30;8.52;;;6.30;99.90;;;;;;5042575;28;20025;-70
2023/10/18 07:13:33;;;;;;;11.95;8.02;;;6.30;99.90;;;;;;5032367;28;20035;-70
2023/10/18 07:16:05;;;;;;;13.73;8.10;;;6.40;99.90;;;;;;5037559;28;20045;-70
2023/10/18 07:18:33;;;;;;;;;;;6.50;99.90;;;;;;5038142;28;20029;-70
2023/10/18 07:21:05;;;;;;;11.73;7.93;;;6.50;99.90;;;;;;5039850;28;20007;-70
2023/10/18 07:23:31;;;;;;;13.75;8.63;;;6.50;99.90;;;;;;5048028;28;20428;-70
2023/10/18 07:25:59;;;;;;;15.88;8.45;;;6.60;99.90;;;;;;5026540;28;20091;-70
2023/10/18 07:28:29;;;;;;;14.93;8.68;;;6.60;99.90;;;;;;5030695;28;20045;-70
2023/10/18 07:30:55;;;;;;;14.45;8.57;;;6.70;99.90;;;;;;5038409;28;20033;-70
2023/10/18 07:33:23;;;;;;;17.67;9.02;;;6.70;99.90;;;;;;5037564;28;20125;-70
2023/10/18 07:35:49;;;;;;;14.45;8.48;;;6.70;99.90;;;;;;5038125;28;20048;-71
2023/10/18 07:38:25;;;;;;;17.40;9.32;;;6.80;99.90;;;;;;5031506;28;20021;-70
2023/10/18 07:41:00;;;;;;;13.05;7.68;;;6.90;99.90;;;;;;5043744;28;20040;-70
2023/10/18 07:43:27;;;;;;;11.95;7.93;;;6.90;99.90;;;;;;5049396;28;20448;-70
2023/10/18 07:45:55;;;;;;;13.55;8.43;;;7.00;99.90;;;;;;5042505;28;20033;-70
2023/10/18 07:48:23;;;;;;;12.30;7.85;;;7.00;99.90;;;;;;5043424;28;20029;-70
2023/10/18 07:50:51;;;;;;;16.25;8.77;;;7.10;99.90;;;;;;5042473;28;20048;-70
2023/10/18 07:53:20;;;;;;;14.02;8.45;;;7.10;99.90;;;;;;5043602;28;20041;-71
2023/10/18 07:55:48;;;;;;;10.15;7.10;;;7.10;99.90;;;;;;5045401;28;20048;-70
2023/10/18 07:58:48;;;;;;;11.30;7.38;;;7.20;99.90;;;;;;5043288;28;20026;-70
2023/10/18 08:03:31;;;;;;;14.35;7.35;;;7.30;99.90;;;;;;5049803;28;20022;-70
2023/10/18 08:05:59;;;;;;;11.23;7.18;;;7.30;99.90;;;;;;5045061;28;20032;-70
2023/10/18 08:08:25;;;;;;;16.95;8.65;;;7.40;99.90;;;;;;5049790;28;20377;-70
2023/10/18 08:10:53;;;;;;;11.82;7.72;;;7.40;99.90;;;;;;5055013;28;20053;-70
2023/10/18 08:13:25;;;;;;;13.02;8.00;;;7.50;99.90;;;;;;5045800;28;20108;-70
2023/10/18 08:15:53;;;;;;;12.57;7.45;;;7.50;99.90;;;;;;5044454;28;20477;-70
2023/10/18 08:18:21;;;;;;;9.95;6.50;;;7.60;99.90;;;;;;5045870;28;20037;-70
2023/10/18 08:25:51;;;;;;;11.98;7.28;;;7.80;99.90;;;;;;5044396;28;20082;-70
2023/10/18 08:28:20;;;;;;;11.07;6.90;;;7.90;99.90;;;;;;5051970;28;20029;-70
2023/10/18 08:33:11;;;;;;;10.07;6.68;;;8.00;99.90;;;;;;5047493;28;20108;-70
2023/10/18 08:35:37;;;;;;;11.00;7.30;;;8.10;99.90;;;;;;5053664;28;20052;-70
2023/10/18 08:38:03;;;;;;;9.75;6.88;;;8.20;99.90;;;;;;5045902;28;20047;-70
2023/10/18 08:43:28;;;;;;;12.77;6.28;;;8.50;99.90;;;;;;5049487;28;20032;-70
2023/10/18 08:45:55;;;;;;;9.15;5.82;;;8.60;99.90;;;;;;5030866;28;20513;-70
2023/10/18 08:48:28;;;;;;;10.63;6.18;;;8.80;99.90;;;;;;5055128;28;20494;-71
2023/10/18 08:50:58;;;;;;;8.05;5.80;;;8.90;99.90;;;;;;5053207;28;20028;-71
2023/10/18 08:53:26;;;;;;;11.40;6.03;;;8.90;99.90;;;;;;5047502;28;20999;-71
2023/10/18 08:55:57;;;;;;;8.38;5.43;;;9.00;99.90;;;;;;5056938;28;20028;-71
2023/10/18 08:58:23;;;;;;;7.28;4.90;;;9.00;99.90;;;;;;5048253;28;20063;-71
2023/10/18 09:03:23;;;;;;;9.38;5.55;;;9.10;99.90;;;;;;5052582;28;20031;-71
2023/10/18 09:05:52;;;;;;;8.15;5.20;;;9.20;99.90;;;;;;5039803;28;20456;-71
2023/10/18 09:08:26;;;;;;;8.25;4.88;;;9.20;99.90;;;;;;5041315;28;20035;-71
2023/10/18 09:10:54;;;;;;;6.30;4.70;;;9.20;99.90;;;;;;5044744;28;20032;-71
2023/10/18 09:18:24;;;;;;;7.35;4.35;;;9.30;99.90;;;;;;5033848;28;20411;-71
2023/10/18 09:20:50;;;;;;;8.23;4.28;;;9.40;99.90;;;;;;5038685;28;20116;-70
2023/10/18 09:23:20;;;;;;;6.22;4.13;;;9.40;99.90;;;;;;5039578;28;20040;-71
2023/10/18 09:25:48;;;;;;;8.13;4.75;;;9.50;99.90;;;;;;5037984;28;20044;-71
2023/10/18 09:28:35;;;;;;;7.85;4.50;;;9.60;99.90;;;;;;5033322;28;20513;-71
2023/10/18 09:31:10;;;;;;;8.50;3.55;;;9.60;99.90;;;;;;5039908;28;20094;-72
2023/10/18 09:33:48;;;;;;;8.60;3.83;;;9.70;99.90;;;;;;5038358;28;20029;-71
2023/10/18 09:36:23;;;;;;;5.30;3.67;;;9.80;99.90;;;;;;5036458;28;20056;-71
2023/10/18 09:38:51;;;;;;;6.00;3.58;;;9.90;99.90;;;;;;5041099;28;20051;-71
2023/10/18 09:41:17;;;;;;;6.75;3.67;;;10.00;99.90;;;;;;5041736;28;20044;-71
2023/10/18 09:43:44;;;;;;;6.22;4.13;;;10.10;99.90;;;;;;5035945;28;20032;-71
2023/10/18 09:46:10;;;;;;;6.55;4.40;;;10.20;99.90;;;;;;5037766;28;20013;-71
2023/10/18 09:48:43;;;;;;;7.03;3.53;;;10.30;99.90;;;;;;5042110;28;20090;-70
2023/10/18 09:51:11;;;;;;;7.15;3.97;;;10.40;99.90;;;;;;5043942;28;20037;-71
2023/10/18 09:53:43;;;;;;;9.25;4.78;;;10.40;99.90;;;;;;5038614;28;20041;-71
2023/10/18 09:56:13;;;;;;;6.82;4.20;;;10.50;99.90;;;;;;5037818;28;20029;-70
2023/10/18 09:58:46;;;;;;;7.40;3.92;;;10.60;99.90;;;;;;5039293;28;20037;-70
2023/10/18 10:01:13;;;;;;;7.78;3.92;;;10.60;99.90;;;;;;5043966;28;20032;-70
2023/10/18 10:03:52;;;;;;;6.28;3.38;;;10.70;99.90;;;;;;5038303;28;20037;-71
2023/10/18 10:06:22;;;;;;;6.03;3.72;;;10.80;99.90;;;;;;5048796;28;20025;-70
2023/10/18 10:08:54;;;;;;;9.30;3.35;;;10.90;99.90;;;;;;5047657;28;20032;-71
2023/10/18 10:11:21;;;;;;;;;;;11.00;99.90;;;;;;5054713;28;20385;-71
2023/10/18 10:13:49;;;;;;;7.45;3.70;;;11.10;99.90;;;;;;5054140;28;19908;-71
2023/10/18 10:16:20;;;;;;;5.97;3.42;;;11.10;99.90;;;;;;5043500;28;20059;-71
2023/10/18 10:18:47;;;;;;;5.82;3.60;;;11.20;99.90;;;;;;5049080;28;20052;-71
2023/10/18 10:21:16;;;;;;;5.47;3.03;;;11.20;99.90;;;;;;5051473;28;20098;-71
2023/10/18 10:23:41;;;;;;;7.68;3.78;;;11.40;99.90;;;;;;5030121;28;20389;-71
2023/10/18 10:26:11;;;;;;;7.85;3.90;;;11.50;99.90;;;;;;5045254;28;20070;-71
2023/10/18 10:29:10;;;;;;;6.30;3.05;;;11.60;99.90;;;;;;5049647;28;20498;-70
2023/10/18 10:32:06;;;;;;;8.90;3.75;;;11.60;99.90;;;;;;5050095;28;20041;-71
2023/10/18 10:34:37;;;;;;;6.97;2.72;;;11.80;99.90;;;;;;5047244;28;20103;-71
2023/10/18 10:37:12;;;;;;;7.38;4.05;;;11.80;99.90;;;;;;5042998;28;20057;-70
2023/10/18 10:39:44;;;;;;;7.25;4.05;;;11.90;99.90;;;;;;5039363;28;20098;-70
2023/10/18 10:42:29;;;;;;;7.07;3.78;;;11.90;99.90;;;;;;5044740;28;20111;-70
2023/10/18 10:45:07;;;;;;;6.00;3.95;;;12.00;99.90;;;;;;5050560;28;20455;-71
2023/10/18 10:47:33;;;;;;;5.82;3.10;;;12.10;99.90;;;;;;5049312;28;20048;-71
2023/10/18 10:50:00;;;;;;;8.05;3.08;;;12.10;99.90;;;;;;5054721;28;20478;-71
2023/10/18 10:52:30;;;;;;;5.70;3.63;;;12.30;99.90;;;;;;5046174;28;20036;-71
2023/10/18 10:55:21;;;;;;;6.30;3.22;;;12.40;99.90;;;;;;5041776;28;20494;-71
2023/10/18 10:57:48;;;;;;;5.45;2.80;;;12.50;99.90;;;;;;5045147;28;20049;-71
2023/10/18 11:03:06;;;;;;;6.05;3.13;;;12.70;99.90;;;;;;5042067;28;20043;-71
2023/10/18 11:05:39;;;;;;;5.78;2.95;;;12.70;99.90;;;;;;5063397;28;20021;-71
2023/10/18 11:08:05;;;;;;;4.65;2.75;;;12.80;99.90;;;;;;5044524;28;20120;-71
2023/10/18 11:10:39;;;;;;;6.05;3.60;;;12.90;99.90;;;;;;5050241;28;20055;-71
2023/10/18 11:13:07;;;;;;;5.18;3.05;;;13.00;99.90;;;;;;5043813;28;20117;-71
2023/10/18 11:15:36;;;;;;;7.85;3.70;;;13.10;99.90;;;;;;5045899;28;20497;-71
2023/10/18 11:18:20;;;;;;;5.68;3.97;;;13.10;99.90;;;;;;5054898;28;20036;-71
2023/10/18 11:21:05;;;;;;;6.03;3.53;;;13.20;99.90;;;;;;5053826;28;20774;-71
2023/10/18 11:23:33;;;;;;;6.47;2.63;;;13.30;99.90;;;;;;5038613;28;20057;-71
2023/10/18 11:26:00;;;;;;;7.28;3.38;;;13.30;99.90;;;;;;5059658;28;20477;-71
2023/10/18 11:28:29;;;;;;;7.22;3.10;;;13.40;99.90;;;;;;5057762;28;20082;-71
2023/10/18 11:30:56;;;;;;;7.60;3.30;;;13.40;99.90;;;;;;5054823;28;20036;-71
2023/10/18 11:33:59;;;;;;;5.35;3.20;;;13.50;99.90;;;;;;5047784;28;20432;-71
2023/10/18 11:36:22;;;;;;;8.15;3.35;;;13.70;99.90;;;;;;5052068;28;20101;-71
2023/10/18 11:41:53;;;;;;;4.28;2.75;;;13.80;99.90;;;;;;4967897;28;20078;-71
2023/10/18 11:44:32;;;;;;;8.10;3.33;;;13.90;99.90;;;;;;4962675;28;20026;-71
2023/10/18 11:47:12;;;;;;;7.60;3.78;;;14.00;99.90;;;;;;5025094;28;20063;-72
2023/10/18 11:49:39;;;;;;;4.80;3.03;;;14.00;99.90;;;;;;5056019;28;20106;-71
2023/10/18 11:52:19;;;;;;;5.53;3.13;;;14.20;99.90;;;;;;5054927;28;20021;-71
2023/10/18 11:54:45;;;;;;;6.80;3.40;;;14.30;99.90;;;;;;5050943;28;20040;-71
2023/10/18 11:57:29;;;;;;;7.35;3.50;;;14.40;99.90;;;;;;5053329;28;20033;-72
2023/10/18 11:59:55;;;;;;;6.40;3.03;;;14.50;99.90;;;;;;5057832;28;20370;-71
2023/10/18 12:02:27;;;;;;;9.18;4.10;;;14.50;99.90;;;;;;5063697;28;20022;-71
2023/10/18 12:04:54;;;;;;;12.40;3.55;;;14.50;99.90;;;;;;5063537;28;20017;-71
2023/10/18 12:07:22;;;;;;;10.65;3.45;;;14.50;99.90;;;;;;5069182;28;20036;-71
2023/10/18 12:09:51;;;;;;;6.00;3.20;;;14.50;99.90;;;;;;5048038;28;20376;-71
2023/10/18 12:12:20;;;;;;;6.57;3.33;;;14.40;99.90;;;;;;5061895;28;20024;-71
2023/10/18 12:14:47;;;;;;;7.32;3.78;;;14.40;99.90;;;;;;5038932;28;20030;-71
2023/10/18 12:17:13;;;;;;;7.15;3.60;;;14.40;99.90;;;;;;5034823;28;20042;-71
2023/10/18 12:19:40;;;;;;;5.90;3.60;;;14.40;99.90;;;;;;5056614;28;20026;-71
2023/10/18 12:22:07;;;;;;;7.38;3.65;;;14.30;99.90;;;;;;5064969;28;20025;-71
2023/10/18 12:24:33;;;;;;;7.63;4.18;;;14.20;99.90;;;;;;5050398;28;20072;-71
2023/10/18 12:27:18;;;;;;;7.82;4.25;;;14.20;99.90;;;;;;5048735;28;20037;-72
2023/10/18 12:29:45;;;;;;;5.45;3.10;;;14.10;99.90;;;;;;5052897;28;20071;-71
2023/10/18 12:32:19;;;;;;;6.00;3.17;;;14.20;99.90;;;;;;5058146;28;20361;-71
2023/10/18 12:34:50;;;;;;;6.97;3.80;;;14.20;99.90;;;;;;5065535;28;20040;-71
2023/10/18 12:37:16;;;;;;;6.95;4.00;;;14.30;99.90;;;;;;5052243;28;20140;-71
2023/10/18 12:39:46;;;;;;;5.38;3.50;;;14.30;99.90;;;;;;5066755;28;20419;-71
2023/10/18 12:42:13;;;;;;;8.07;3.75;;;14.20;99.90;;;;;;5048673;28;20500;-71
2023/10/18 12:44:39;;;;;;;5.78;3.95;;;14.20;99.90;;;;;;5059858;28;20013;-71
2023/10/18 12:47:09;;;;;;;10.90;4.00;;;14.20;99.90;;;;;;5061595;28;20400;-71
2023/10/18 12:49:37;;;;;;;7.43;3.83;;;14.20;99.90;;;;;;5067915;28;20048;-71
2023/10/18 12:52:21;;;;;;;8.35;3.72;;;14.20;99.90;;;;;;5067693;28;20492;-71
2023/10/18 12:54:51;;;;;;;6.75;4.10;;;14.20;99.90;;;;;;5049697;28;20021;-71
2023/10/18 12:57:20;;;;;;;7.70;4.15;;;14.20;99.90;;;;;;5059666;28;20064;-71
2023/10/18 13:05:07;;;;;;;8.57;3.63;;;14.30;99.90;;;;;;5052527;28;20023;-71
2023/10/18 13:07:36;;;;;;;8.13;3.72;;;14.40;99.90;;;;;;5052099;28;20020;-71
2023/10/18 13:10:11;;;;;;;6.63;3.55;;;14.50;99.90;;;;;;5054112;28;20033;-71
2023/10/18 13:12:43;;;;;;;10.63;4.13;;;14.60;99.90;;;;;;5046023;28;20031;-71
2023/10/18 13:15:10;;;;;;;5.90;3.53;;;14.70;99.90;;;;;;5060908;28;20390;-71
2023/10/18 13:17:36;;;;;;;10.07;4.15;;;14.80;99.90;;;;;;5058753;28;20033;-71
2023/10/18 13:20:06;;;;;;;7.75;3.72;;;14.80;99.90;;;;;;5070037;28;20405;-71
2023/10/18 13:22:34;;;;;;;5.55;3.47;;;14.90;99.90;;;;;;5051081;28;20485;-71
2023/10/18 13:25:07;;;;;;;6.53;3.80;;;14.90;99.90;;;;;;5065468;28;20409;-71
2023/10/18 13:27:37;;;;;;;6.50;3.92;;;14.90;99.90;;;;;;5051337;28;20086;-71
2023/10/18 13:30:31;;;;;;;7.68;3.63;;;14.90;99.90;;;;;;5051704;28;20051;-71
2023/10/18 13:32:50;;;;;;;5.68;3.83;;;14.90;99.90;;;;;;5050479;28;20076;-71
2023/10/18 13:35:16;;;;;;;7.68;3.90;;;14.90;99.90;;;;;;5049428;28;20103;-71
2023/10/18 13:37:44;;;;;;;4.97;3.08;;;14.90;99.90;;;;;;5050301;28;20468;-71
2023/10/18 13:40:20;;;;;;;9.25;3.92;;;14.80;99.90;;;;;;5048546;28;20025;-71
2023/10/18 13:42:46;;;;;;;7.07;3.40;;;14.80;99.90;;;;;;5047229;28;20029;-71
2023/10/18 13:45:15;;;;;;;7.00;4.05;;;14.70;99.90;;;;;;5051255;28;20025;-71
2023/10/18 13:47:41;;;;;;;4.85;2.95;;;14.60;99.90;;;;;;5051754;28;20458;-71
2023/10/18 13:50:10;;;;;;;7.82;3.50;;;14.70;99.90;;;;;;5051285;28;20064;-71
2023/10/18 13:52:41;;;;;;;5.75;3.67;;;14.60;99.90;;;;;;5043140;28;20055;-71
2023/10/18 13:55:07;;;;;;;4.85;3.25;;;14.60;99.90;;;;;;5052398;28;20039;-71
2023/10/18 13:57:33;;;;;;;6.38;3.70;;;14.70;99.90;;;;;;5062622;28;20037;-71
2023/10/18 14:00:06;;;;;;;5.18;3.38;;;14.70;99.90;;;;;;5063831;28;20378;-71
2023/10/18 14:02:38;;;;;;;6.32;3.72;;;14.60;99.90;;;;;;5048002;28;20102;-71